createdAt,value
2019-04-26T00:00:50.499Z,0.60
2019-04-26T00:05:54.981Z,0.90
2019-04-26T00:11:06.873Z,0.90
2019-04-26T00:16:22.987Z,0.87
2019-04-26T00:21:28.415Z,0.73
2019-04-26T00:26:33.679Z,0.70
2019-04-26T00:31:39.041Z,0.67
2019-04-26T00:36:43.612Z,0.80
2019-04-26T00:41:48.654Z,0.90
2019-04-26T00:46:57.212Z,0.90
2019-04-26T00:52:03.373Z,0.77
2019-04-26T00:57:08.985Z,0.90
2019-04-26T01:02:19.163Z,0.90
2019-04-26T01:07:25.324Z,0.90
2019-04-26T01:12:30.677Z,0.90
2019-04-26T01:17:35.846Z,0.70
2019-04-26T01:22:44.116Z,0.80
2019-04-26T01:27:48.977Z,0.90
2019-04-26T01:32:54.023Z,1.20
2019-04-26T01:38:00.874Z,1.10
2019-04-26T01:43:15.823Z,1.20
2019-04-26T01:48:45.721Z,1.13
2019-04-26T01:53:52.966Z,1.00
2019-04-26T01:58:58.111Z,0.80
2019-04-26T02:04:05.998Z,0.60
2019-04-26T02:09:11.478Z,1.00
2019-04-26T02:14:16.501Z,1.13
2019-04-26T02:19:21.696Z,1.10
2019-04-26T02:24:38.535Z,1.17
2019-04-26T02:29:43.593Z,1.10
2019-04-26T02:34:49.019Z,1.43
2019-04-26T02:39:55.547Z,1.10
2019-04-26T02:45:30.921Z,1.23
2019-04-26T02:50:44.825Z,1.47
2019-04-26T02:56:12.505Z,1.50
2019-04-26T03:01:18.041Z,1.80
2019-04-26T03:06:23.617Z,1.50
2019-04-26T03:11:33.363Z,1.50
2019-04-26T03:17:00.177Z,1.63
2019-04-26T03:22:11.459Z,1.20
2019-04-26T03:27:24.851Z,1.23
2019-04-26T03:33:01.502Z,1.40
2019-04-26T03:38:40.110Z,1.40
2019-04-26T03:44:15.700Z,1.40
2019-04-26T03:49:59.044Z,1.40
2019-04-26T03:55:08.822Z,1.60
2019-04-26T04:00:43.415Z,1.50
2019-04-26T04:05:51.849Z,1.30
2019-04-26T04:11:02.043Z,0.93
2019-04-26T04:16:12.403Z,0.93
2019-04-26T04:21:34.117Z,1.40
2019-04-26T04:27:18.740Z,1.20
2019-04-26T04:32:42.466Z,1.30
2019-04-26T04:38:08.657Z,1.17
2019-04-26T04:43:23.703Z,1.43
2019-04-26T04:48:51.169Z,1.57
2019-04-26T04:54:20.774Z,1.13
2019-04-26T04:59:35.185Z,1.20
2019-04-26T05:05:23.046Z,1.13
2019-04-26T05:10:44.211Z,1.30
2019-04-26T05:16:20.156Z,1.20
2019-04-26T05:21:53.020Z,1.17
2019-04-26T05:27:26.634Z,1.53
2019-04-26T05:33:15.555Z,1.10
2019-04-26T05:39:00.437Z,1.10
2019-04-26T05:44:21.789Z,1.50
2019-04-26T05:50:24.734Z,1.73
2019-04-26T05:56:09.906Z,1.73
2019-04-26T06:02:05.581Z,2.03
2019-04-26T06:07:40.380Z,2.03
2019-04-26T06:13:00.844Z,2.50
2019-04-26T06:18:43.030Z,2.23
2019-04-26T06:24:29.171Z,2.40
2019-04-26T06:30:05.033Z,2.50
2019-04-26T06:35:23.324Z,2.10
2019-04-26T06:40:54.582Z,1.83
2019-04-26T06:46:30.302Z,1.97
2019-04-26T06:51:40.868Z,2.00
2019-04-26T06:57:20.666Z,2.33
2019-04-26T07:02:42.197Z,2.30
2019-04-26T07:08:41.122Z,1.37
2019-04-26T07:14:15.653Z,1.10
2019-04-26T07:19:58.540Z,0.90
2019-04-26T07:26:00.312Z,0.70
2019-04-26T07:31:14.857Z,0.60
2019-04-26T07:37:06.760Z,0.50
2019-04-26T07:42:54.772Z,0.60
2019-04-26T07:48:21.367Z,0.60
2019-04-26T07:54:22.395Z,0.50
2019-04-26T08:00:12.956Z,0.67
2019-04-26T08:05:32.455Z,0.47
2019-04-26T08:10:39.868Z,0.40
2019-04-26T08:16:06.768Z,0.40
2019-04-26T08:21:31.845Z,0.43
2019-04-26T08:26:38.918Z,0.47
2019-04-26T08:31:47.297Z,0.40
2019-04-26T08:37:03.229Z,0.40
2019-04-26T08:42:19.217Z,0.40
2019-04-26T08:47:50.858Z,0.33
2019-04-26T08:52:58.109Z,0.40
2019-04-26T08:58:09.232Z,0.40
2019-04-26T09:03:53.259Z,0.50
2019-04-26T09:09:01.402Z,0.40
2019-04-26T09:14:08.101Z,0.30
2019-04-26T09:19:13.053Z,0.30
2019-04-26T09:24:29.799Z,0.30
2019-04-26T09:30:08.391Z,0.30
2019-04-26T09:35:15.271Z,0.30
2019-04-26T09:40:22.574Z,0.40
2019-04-26T09:45:40.511Z,0.40
2019-04-26T09:50:49.853Z,0.30
2019-04-26T09:55:54.383Z,0.30
2019-04-26T10:00:59.196Z,0.43
2019-04-26T10:06:04.090Z,0.30
2019-04-26T10:11:10.927Z,0.20
2019-04-26T10:16:33.545Z,0.30
2019-04-26T10:21:39.555Z,0.40
2019-04-26T10:26:44.770Z,0.40
2019-04-26T10:31:51.711Z,0.43
2019-04-26T10:36:57.143Z,0.40
2019-04-26T10:42:02.133Z,0.40
2019-04-26T10:47:07.333Z,0.53
2019-04-26T10:52:49.580Z,0.40
2019-04-26T10:57:53.647Z,0.50
2019-04-26T11:03:00.147Z,0.30
2019-04-26T11:08:05.281Z,0.60
2019-04-26T11:13:10.946Z,0.40
2019-04-26T11:18:19.842Z,0.40
2019-04-26T11:23:22.683Z,0.40
2019-04-26T11:28:27.639Z,0.50
2019-04-26T11:33:44.262Z,0.50
2019-04-26T11:38:39.707Z,0.40
2019-04-26T11:43:44.486Z,0.20
2019-04-26T11:48:58.584Z,0.40
2019-04-26T11:53:55.564Z,0.33
2019-04-26T11:59:00.339Z,0.30
2019-04-26T12:04:36.944Z,0.40
2019-04-26T12:09:45.490Z,0.30
2019-04-26T12:14:51.128Z,0.30
2019-04-26T12:19:56.131Z,0.20
2019-04-26T12:25:03.440Z,0.30
2019-04-26T12:30:07.521Z,0.30
2019-04-26T12:35:12.677Z,0.20
2019-04-26T12:40:19.427Z,0.30
2019-04-26T12:46:01.617Z,0.30
2019-04-26T12:51:08.107Z,0.37
2019-04-26T12:56:13.859Z,0.30
2019-04-26T13:01:18.751Z,0.30
2019-04-26T13:06:27.813Z,0.30
2019-04-26T13:11:52.893Z,0.30
2019-04-26T13:17:06.022Z,0.30
2019-04-26T13:22:12.505Z,0.30
2019-04-26T13:27:18.159Z,0.40
2019-04-26T13:32:24.477Z,0.40
2019-04-26T13:37:32.140Z,0.30
2019-04-26T13:42:36.024Z,0.20
2019-04-26T13:47:56.344Z,0.43
2019-04-26T13:53:00.837Z,0.50
2019-04-26T13:58:20.504Z,0.47
2019-04-26T14:03:26.951Z,0.40
2019-04-26T14:08:29.252Z,0.50
2019-04-26T14:13:34.181Z,0.40
2019-04-26T14:18:40.720Z,0.30
2019-04-26T14:23:56.344Z,0.40
2019-04-26T14:29:01.736Z,0.37
2019-04-26T14:34:07.075Z,0.47
2019-04-26T14:39:14.923Z,0.40
2019-04-26T14:44:18.227Z,0.40
2019-04-26T14:49:24.741Z,0.40
2019-04-26T14:54:29.919Z,0.40
2019-04-26T15:00:04.856Z,0.40
2019-04-26T15:05:30.721Z,0.40
2019-04-26T15:10:43.497Z,0.40
2019-04-26T15:15:46.090Z,0.50
2019-04-26T15:20:53.098Z,0.40
2019-04-26T15:25:58.455Z,0.70
2019-04-26T15:31:03.494Z,0.60
2019-04-26T15:36:11.174Z,0.40
2019-04-26T15:41:34.114Z,0.50
2019-04-26T15:47:05.582Z,0.60
2019-04-26T15:52:10.016Z,0.60
2019-04-26T15:57:14.894Z,0.43
2019-04-26T16:02:23.067Z,0.50
2019-04-26T16:07:28.821Z,0.50
2019-04-26T16:12:32.686Z,0.47
2019-04-26T16:17:40.072Z,0.40
2019-04-26T16:22:44.165Z,0.30
2019-04-26T16:27:51.024Z,0.30
2019-04-26T16:33:04.971Z,0.30
2019-04-26T16:38:27.021Z,0.40
2019-04-26T16:43:37.789Z,0.57
2019-04-26T16:48:39.456Z,0.40
2019-04-26T16:54:02.510Z,0.43
2019-04-26T16:58:53.612Z,0.50
2019-04-26T17:03:57.795Z,0.57
2019-04-26T17:09:05.229Z,0.60
2019-04-26T17:14:11.155Z,0.47
2019-04-26T17:19:19.656Z,0.60
2019-04-26T17:24:46.840Z,0.60
2019-04-26T17:29:52.726Z,0.50
2019-04-26T17:34:59.716Z,0.70
2019-04-26T17:40:04.966Z,0.53
2019-04-26T17:45:10.893Z,0.60
2019-04-26T17:50:15.621Z,0.60
2019-04-26T17:55:20.306Z,0.73
2019-04-26T18:00:28.707Z,0.60
2019-04-26T18:05:45.004Z,0.50
2019-04-26T18:10:42.707Z,0.60
2019-04-26T18:15:48.495Z,0.70
2019-04-26T18:21:29.446Z,0.50
2019-04-26T18:27:16.787Z,0.47
2019-04-26T18:32:21.836Z,0.60
2019-04-26T18:37:26.565Z,0.57
2019-04-26T18:42:33.498Z,0.67
2019-04-26T18:47:45.046Z,0.70
2019-04-26T19:05:03.710Z,0.70
2019-04-26T19:10:21.604Z,0.68
2019-04-26T19:15:57.763Z,0.77
2019-04-26T19:22:09.540Z,0.60
2019-04-26T19:27:49.596Z,1.77
2019-04-26T19:33:03.086Z,1.00
2019-04-26T19:38:15.405Z,1.00
2019-04-26T19:43:31.086Z,0.87
2019-04-26T19:48:56.958Z,0.83
2019-04-26T19:54:31.324Z,1.00
2019-04-26T20:00:03.660Z,1.15
2019-04-26T20:05:44.778Z,0.80
2019-04-26T20:11:05.792Z,1.10
2019-04-26T20:16:22.625Z,0.90
2019-04-26T20:21:55.875Z,1.20
2019-04-26T20:27:15.649Z,1.03
2019-04-26T20:32:33.590Z,1.00
2019-04-26T20:37:42.508Z,1.23
2019-04-26T20:43:02.059Z,1.50
2019-04-26T20:50:14.719Z,1.30
2019-04-26T20:54:31.566Z,1.20
2019-04-26T21:00:22.409Z,1.50
2019-04-26T21:06:08.717Z,1.50
2019-04-26T21:11:21.793Z,1.80
2019-04-26T21:16:26.936Z,2.33
2019-04-26T21:21:32.084Z,1.87
2019-04-26T21:27:07.918Z,1.80
2019-04-26T21:32:26.194Z,1.80
2019-04-26T21:38:33.954Z,2.20
2019-04-26T21:44:20.463Z,1.73
2019-04-26T21:50:00.828Z,1.80
2019-04-26T21:55:35.230Z,1.83
2019-04-26T22:01:47.644Z,1.90
2019-04-26T22:13:53.958Z,1.47
2019-04-26T22:32:01.459Z,1.73
2019-04-26T22:37:29.173Z,1.37
2019-04-26T22:43:20.251Z,1.70
2019-04-26T22:49:04.983Z,1.30
2019-04-26T22:55:24.129Z,1.60
2019-04-26T23:06:58.666Z,1.43
2019-04-26T23:12:43.985Z,1.70
2019-04-26T23:18:27.402Z,1.53
2019-04-26T23:24:58.043Z,1.60
2019-04-26T23:30:31.713Z,2.17
2019-04-26T23:36:03.155Z,2.50
2019-04-26T23:41:10.737Z,2.27
2019-04-26T23:46:38.587Z,2.20
2019-04-26T23:52:06.391Z,3.00
2019-04-26T23:57:40.543Z,3.27
